»·PEaware :: SWA717 MMSD-KOKC

SWA717 :: MMSD-KOKC

FLIGHT INFORMATION

Flight Status: Arrived
Operator:
Southwest Airlines
More flights by this operator :: More flights under this callsign
Pilot: Ty Shuff (2873)
Aircraft: BOEING 737-300
(B733)
More flights by this aircraft type
Origin: MMSD Los Cabos Intl
Mexico
Destination: KOKC Will Rogers World
United States
More flights between these airports :: More routes between these airports
Route:
File this flight plan on PilotEdge
Remarks:
Altitude:
(Current/Filed)
0ft
Speed:
(Current/Filed)
0kts
Departed: 07-May-16 06:20 AM
Arrived: 07-May-16 08:46 AM
Distance/Time
Traveled:
969nm/2:25
Distance/Time
To Go:
Arrived

Flight Plot

Page will automatically refresh every two minutes.


Map Options




Map Legend


Flown Route
Filed Route
Departure Airport
Arrival Airport
Navaid (VOR, NDB)
Fix

Horizontal Profiles

Position Reports

Time Latitude Longitude Heading Altitude Ground
Speed
07-May-16 06:03 23.162595 -109.718298 83 381ft 0kts
07-May-16 06:04 23.162595 -109.718298 83 381ft 0kts
07-May-16 06:05 23.162595 -109.718298 83 381ft 0kts
07-May-16 06:06 23.162595 -109.718298 83 381ft 0kts
07-May-16 06:07 23.162595 -109.718298 83 381ft 0kts
07-May-16 06:08 23.162595 -109.718298 83 381ft 0kts
07-May-16 06:09 23.162595 -109.718298 83 381ft 0kts
07-May-16 06:10 23.162595 -109.718298 83 381ft 0kts
07-May-16 06:11 23.162595 -109.718298 83 381ft 0kts
07-May-16 06:12 23.162573 -109.718517 83 381ft 0kts
07-May-16 06:13 23.162259 -109.718887 351 381ft 0kts
07-May-16 06:14 23.162218 -109.718879 348 381ft 0kts
07-May-16 06:15 23.162218 -109.718879 348 381ft 0kts
07-May-16 06:16 23.163113 -109.719736 355 381ft 11kts
07-May-16 06:17 23.165893 -109.720266 271 381ft 10kts
07-May-16 06:18 23.165063 -109.722619 173 381ft 0kts
07-May-16 06:19 23.138003 -109.719192 172 853ft 172kts
07-May-16 06:20 23.082749 -109.707657 168 2133ft 236kts
07-May-16 06:21 23.011562 -109.693209 165 4093ft 275kts
07-May-16 06:22 22.990031 -109.621094 65 6477ft 291kts
07-May-16 06:23 23.046026 -109.556594 23 8870ft 301kts
07-May-16 06:24 23.128642 -109.526450 356 10374ft 344kts
07-May-16 06:25 23.224072 -109.545095 332 12479ft 361kts
07-May-16 06:26 23.298666 -109.611916 305 15004ft 356kts
07-May-16 06:27 23.393581 -109.620777 40 17145ft 414kts
07-May-16 06:28 23.458380 -109.516123 41 19099ft 429kts
07-May-16 06:29 23.556570 -109.440214 29 21033ft 439kts
07-May-16 06:30 23.640221 -109.354419 72 22613ft 457kts
07-May-16 06:31 23.703655 -109.237194 55 24108ft 470kts
07-May-16 06:32 23.777335 -109.117243 54 25546ft 482kts
07-May-16 06:33 23.852662 -108.994126 54 26879ft 493kts
07-May-16 06:34 23.929443 -108.868322 54 28066ft 504kts
07-May-16 06:35 24.006941 -108.741015 53 29634ft 502kts
07-May-16 06:36 24.083987 -108.614141 53 31039ft 502kts
07-May-16 06:37 24.160335 -108.488111 53 32286ft 501kts
07-May-16 06:38 24.234983 -108.364515 52 32962ft 492kts
07-May-16 06:39 24.309922 -108.240877 53 32933ft 492kts
07-May-16 06:40 24.385124 -108.115746 53 32953ft 490kts
07-May-16 06:41 24.459513 -107.991679 53 32965ft 488kts
07-May-16 06:42 24.534005 -107.867117 53 32966ft 488kts
07-May-16 06:43 24.608224 -107.742693 53 32966ft 488kts
07-May-16 06:44 24.682180 -107.618392 53 32966ft 488kts
07-May-16 06:45 24.756121 -107.493796 53 32966ft 488kts
07-May-16 06:46 24.841004 -107.377446 45 32967ft 485kts
07-May-16 06:47 24.911981 -107.285097 45 32963ft 484kts
07-May-16 06:48 24.998445 -107.171606 45 32968ft 485kts
07-May-16 06:49 25.084828 -107.057860 45 32966ft 485kts
07-May-16 06:50 25.169900 -106.945570 46 32984ft 485kts
07-May-16 06:51 25.256061 -106.831569 46 32984ft 485kts
07-May-16 06:52 25.341977 -106.717613 46 32984ft 484kts
07-May-16 06:53 25.427740 -106.603588 46 33025ft 485kts
07-May-16 06:54 25.513717 -106.488993 46 33048ft 485kts
07-May-16 06:55 25.599516 -106.374353 46 33047ft 485kts
07-May-16 06:56 25.684221 -106.261506 46 33045ft 485kts
07-May-16 06:57 25.770047 -106.146284 46 33048ft 485kts
07-May-16 06:58 25.855791 -106.030864 46 33045ft 485kts
07-May-16 06:59 25.941475 -105.915238 46 33030ft 486kts
07-May-16 07:00 26.031570 -105.806243 20 33007ft 468kts
07-May-16 07:01 26.152547 -105.790275 358 33035ft 451kts
07-May-16 07:02 26.276389 -105.770745 0 33016ft 450kts
07-May-16 07:03 26.400308 -105.750357 0 33021ft 451kts
07-May-16 07:04 26.524320 -105.729919 0 33020ft 451kts
07-May-16 07:05 26.648540 -105.709041 0 33020ft 451kts
07-May-16 07:06 26.772195 -105.688696 0 33020ft 451kts
07-May-16 07:07 26.896202 -105.668126 0 33020ft 451kts
07-May-16 07:08 27.020001 -105.647545 0 33020ft 451kts
07-May-16 07:09 27.142054 -105.627205 0 33018ft 451kts
07-May-16 07:10 27.265414 -105.606606 0 33020ft 451kts
07-May-16 07:11 27.389509 -105.585842 0 33020ft 451kts
07-May-16 07:12 27.513342 -105.565068 0 33020ft 451kts
07-May-16 07:13 27.637289 -105.544225 0 33020ft 451kts
07-May-16 07:14 27.761142 -105.523358 0 33020ft 451kts
07-May-16 07:15 27.885123 -105.502420 0 33016ft 452kts
07-May-16 07:16 28.011291 -105.481100 0 33072ft 467kts
07-May-16 07:17 28.138179 -105.459527 359 33073ft 465kts
07-May-16 07:18 28.260166 -105.413436 37 33074ft 496kts
07-May-16 07:19 28.366683 -105.314309 32 33073ft 494kts
07-May-16 07:20 28.475533 -105.219284 33 33075ft 495kts
07-May-16 07:21 28.584170 -105.123760 33 33074ft 495kts
07-May-16 07:22 28.693245 -105.027615 33 33074ft 495kts
07-May-16 07:23 28.801256 -104.931727 33 33074ft 493kts
07-May-16 07:24 28.909332 -104.835968 33 33075ft 493kts
07-May-16 07:25 29.017538 -104.739816 33 33074ft 493kts
07-May-16 07:26 29.125306 -104.643792 33 33070ft 493kts
07-May-16 07:27 29.232760 -104.547780 31 33096ft 490kts
07-May-16 07:28 29.339522 -104.452139 31 33099ft 488kts
07-May-16 07:29 29.445778 -104.356685 31 33102ft 489kts
07-May-16 07:30 29.550864 -104.261585 33 33100ft 490kts
07-May-16 07:31 29.656887 -104.164537 31 33102ft 489kts
07-May-16 07:32 29.763473 -104.068066 31 33101ft 489kts
07-May-16 07:33 29.870091 -103.971267 31 33102ft 489kts
07-May-16 07:34 29.976730 -103.874175 31 33099ft 490kts
07-May-16 07:35 30.083982 -103.776253 31 33101ft 493kts
07-May-16 07:36 30.190003 -103.679169 31 33099ft 496kts
07-May-16 07:37 30.297844 -103.580133 31 33103ft 496kts
07-May-16 07:38 30.405825 -103.480688 31 33101ft 496kts
07-May-16 07:39 30.513764 -103.380992 31 33091ft 496kts
07-May-16 07:40 30.602826 -103.298994 32 33018ft 492kts
07-May-16 07:41 30.726842 -103.183959 32 32945ft 490kts
07-May-16 07:42 30.815062 -103.101790 32 32937ft 489kts
07-May-16 07:43 30.939004 -102.986003 32 32940ft 490kts
07-May-16 07:44 31.008277 -102.879117 54 32943ft 504kts
07-May-16 07:45 31.084840 -102.742703 52 32938ft 503kts
07-May-16 07:46 31.161058 -102.607647 52 32939ft 503kts
07-May-16 07:47 31.237487 -102.471711 53 32950ft 502kts
07-May-16 07:48 31.313387 -102.336292 53 32965ft 498kts
07-May-16 07:49 31.389224 -102.201385 54 32988ft 496kts
07-May-16 07:50 31.464540 -102.066006 54 32971ft 497kts
07-May-16 07:51 31.545955 -101.936981 43 32969ft 492kts
07-May-16 07:52 31.637628 -101.818089 43 32976ft 492kts
07-May-16 07:53 31.729014 -101.698678 43 33002ft 491kts
07-May-16 07:54 31.819358 -101.580261 44 32991ft 482kts
07-May-16 07:55 31.908176 -101.463497 44 32987ft 478kts
07-May-16 07:56 31.996281 -101.347305 44 33015ft 480kts
07-May-16 07:57 32.085400 -101.230185 44 33022ft 481kts
07-May-16 07:58 32.172284 -101.114867 44 33019ft 480kts
07-May-16 07:59 32.260911 -100.996865 44 33012ft 479kts
07-May-16 08:00 32.348629 -100.879706 44 33003ft 474kts
07-May-16 08:01 32.436174 -100.762424 44 33005ft 477kts
07-May-16 08:02 32.523796 -100.644633 44 33011ft 475kts
07-May-16 08:03 32.610386 -100.527875 43 33016ft 471kts
07-May-16 08:04 32.696129 -100.411898 43 33022ft 472kts
07-May-16 08:05 32.782450 -100.295322 44 33018ft 472kts
07-May-16 08:06 32.868959 -100.177803 44 33022ft 471kts
07-May-16 08:07 32.954490 -100.060989 44 33020ft 469kts
07-May-16 08:08 33.040240 -99.943835 44 33011ft 471kts
07-May-16 08:09 33.124969 -99.825445 45 33022ft 473kts
07-May-16 08:10 33.209977 -99.705905 45 33023ft 471kts
07-May-16 08:11 33.293658 -99.587847 46 33021ft 464kts
07-May-16 08:12 33.376833 -99.470149 46 33020ft 465kts
07-May-16 08:13 33.460280 -99.351655 46 33020ft 465kts
07-May-16 08:14 33.540523 -99.238216 46 33047ft 466kts
07-May-16 08:15 33.623976 -99.118953 46 33047ft 466kts
07-May-16 08:16 33.707179 -98.999660 46 33038ft 464kts
07-May-16 08:17 33.789832 -98.880772 46 33044ft 464kts
07-May-16 08:18 33.872589 -98.761715 46 33048ft 464kts
07-May-16 08:19 33.954784 -98.642702 46 33046ft 464kts
07-May-16 08:20 34.053247 -98.550381 20 33046ft 451kts
07-May-16 08:21 34.163707 -98.481671 22 32941ft 456kts
07-May-16 08:22 34.275305 -98.409920 23 31382ft 461kts
07-May-16 08:23 34.389298 -98.336542 25 27595ft 474kts
07-May-16 08:24 34.502807 -98.263702 26 25061ft 453kts
07-May-16 08:25 34.611755 -98.198499 21 22646ft 432kts
07-May-16 08:26 34.719869 -98.143025 21 20302ft 416kts
07-May-16 08:27 34.824506 -98.089642 21 18013ft 400kts
07-May-16 08:28 34.924710 -98.038388 22 15874ft 384kts
07-May-16 08:29 35.014099 -97.974818 41 13799ft 368kts
07-May-16 08:30 35.090239 -97.895807 40 11816ft 353kts
07-May-16 08:31 35.168443 -97.829502 31 9937ft 339kts
07-May-16 08:32 35.243103 -97.774120 31 9266ft 294kts
07-May-16 08:33 35.311443 -97.724612 31 7958ft 280kts
07-May-16 08:34 35.383163 -97.708600 358 6634ft 263kts
07-May-16 08:35 35.454761 -97.708182 1 5372ft 253kts
07-May-16 08:36 35.524956 -97.705744 1 4114ft 254kts
07-May-16 08:37 35.595194 -97.703211 0 3997ft 250kts
07-May-16 08:38 35.620303 -97.655968 128 3698ft 187kts
07-May-16 08:39 35.584771 -97.612156 149 2912ft 175kts
07-May-16 08:40 35.548652 -97.590592 191 3001ft 179kts
07-May-16 08:41 35.498077 -97.615048 169 3053ft 131kts
07-May-16 08:42 35.467073 -97.608190 173 2632ft 143kts
07-May-16 08:43 35.427073 -97.605726 179 1749ft 131kts
07-May-16 08:44 35.392319 -97.605706 180 1301ft 93kts
07-May-16 08:45 35.386340 -97.603350 0 1301ft 15kts
07-May-16 08:46 35.390842 -97.603573 357 1301ft 17kts
07-May-16 08:47 35.392114 -97.600233 90 1301ft 15kts
07-May-16 08:48 35.393630 -97.597316 31 1301ft 0kts
07-May-16 08:49 35.393630 -97.597316 31 1301ft 0kts
07-May-16 08:50 35.393630 -97.597316 31 1301ft 0kts

Navigation Log

Ident Type
1. MMSD Airport
2. KOKC Airport